sensor_id;sensor_type;location;lat;lon;timestamp;temperature;humidity
4910;DHT22;2470;49.868;8.660;2023-08-08T00:01:48;16.00;99.90
4910;DHT22;2470;49.868;8.660;2023-08-08T00:04:14;16.00;99.90
4910;DHT22;2470;49.868;8.660;2023-08-08T00:06:39;16.00;99.90
4910;DHT22;2470;49.868;8.660;2023-08-08T00:09:05;15.90;99.90
4910;DHT22;2470;49.868;8.660;2023-08-08T00:11:30;15.90;99.90
4910;DHT22;2470;49.868;8.660;2023-08-08T00:13:56;15.80;99.90
4910;DHT22;2470;49.868;8.660;2023-08-08T00:16:22;15.80;99.90
4910;DHT22;2470;49.868;8.660;2023-08-08T00:18:48;15.80;99.90
4910;DHT22;2470;49.868;8.660;2023-08-08T00:21:16;15.80;99.90
4910;DHT22;2470;49.868;8.660;2023-08-08T00:23:41;15.80;99.90
4910;DHT22;2470;49.868;8.660;2023-08-08T00:26:07;15.80;99.90
4910;DHT22;2470;49.868;8.660;2023-08-08T00:28:32;15.80;99.90
4910;DHT22;2470;49.868;8.660;2023-08-08T00:30:58;15.80;99.90
4910;DHT22;2470;49.868;8.660;2023-08-08T00:33:23;15.80;99.90
4910;DHT22;2470;49.868;8.660;2023-08-08T00:35:49;15.80;99.90
4910;DHT22;2470;49.868;8.660;2023-08-08T00:38:14;15.80;99.90
4910;DHT22;2470;49.868;8.660;2023-08-08T00:40:41;15.70;99.90
4910;DHT22;2470;49.868;8.660;2023-08-08T00:43:07;15.70;99.90
4910;DHT22;2470;49.868;8.660;2023-08-08T00:45:32;15.70;99.90
4910;DHT22;2470;49.868;8.660;2023-08-08T00:47:58;15.70;99.90
4910;DHT22;2470;49.868;8.660;2023-08-08T00:50:24;15.70;99.90
4910;DHT22;2470;49.868;8.660;2023-08-08T00:52:49;15.60;99.90
4910;DHT22;2470;49.868;8.660;2023-08-08T00:55:15;15.60;99.90
4910;DHT22;2470;49.868;8.660;2023-08-08T00:57:41;15.60;99.90
4910;DHT22;2470;49.868;8.660;2023-08-08T01:00:07;15.60;99.90
4910;DHT22;2470;49.868;8.660;2023-08-08T01:02:35;15.60;99.90
4910;DHT22;2470;49.868;8.660;2023-08-08T01:05:01;15.60;99.90
4910;DHT22;2470;49.868;8.660;2023-08-08T01:10:17;15.70;99.90
4910;DHT22;2470;49.868;8.660;2023-08-08T01:12:47;15.70;99.90
4910;DHT22;2470;49.868;8.660;2023-08-08T01:15:14;15.70;99.90
4910;DHT22;2470;49.868;8.660;2023-08-08T01:17:42;15.70;99.90
4910;DHT22;2470;49.868;8.660;2023-08-08T01:20:08;15.60;99.90
4910;DHT22;2470;49.868;8.660;2023-08-08T01:23:24;15.60;99.90
4910;DHT22;2470;49.868;8.660;2023-08-08T01:25:51;15.50;99.90
4910;DHT22;2470;49.868;8.660;2023-08-08T01:28:21;15.50;99.90
4910;DHT22;2470;49.868;8.660;2023-08-08T01:30:48;15.50;99.90
4910;DHT22;2470;49.868;8.660;2023-08-08T01:33:13;15.50;99.90
4910;DHT22;2470;49.868;8.660;2023-08-08T01:35:43;15.50;99.90
4910;DHT22;2470;49.868;8.660;2023-08-08T01:38:15;15.50;99.90
4910;DHT22;2470;49.868;8.660;2023-08-08T01:40:43;15.50;99.90
4910;DHT22;2470;49.868;8.660;2023-08-08T01:43:09;15.50;99.90
4910;DHT22;2470;49.868;8.660;2023-08-08T01:45:36;15.50;99.90
4910;DHT22;2470;49.868;8.660;2023-08-08T01:48:10;15.50;99.90
4910;DHT22;2470;49.868;8.660;2023-08-08T01:50:36;15.50;99.90
4910;DHT22;2470;49.868;8.660;2023-08-08T01:53:02;15.40;99.90
4910;DHT22;2470;49.868;8.660;2023-08-08T01:55:28;15.40;99.90
4910;DHT22;2470;49.868;8.660;2023-08-08T01:57:53;15.40;99.90
4910;DHT22;2470;49.868;8.660;2023-08-08T02:00:20;15.40;99.90
4910;DHT22;2470;49.868;8.660;2023-08-08T02:02:45;15.40;99.90
4910;DHT22;2470;49.868;8.660;2023-08-08T02:05:11;15.30;99.90
4910;DHT22;2470;49.868;8.660;2023-08-08T02:07:36;15.30;99.90
4910;DHT22;2470;49.868;8.660;2023-08-08T02:10:02;15.30;99.90
4910;DHT22;2470;49.868;8.660;2023-08-08T02:12:28;15.30;99.90
4910;DHT22;2470;49.868;8.660;2023-08-08T02:14:56;15.30;99.90
4910;DHT22;2470;49.868;8.660;2023-08-08T02:17:21;15.20;99.90
4910;DHT22;2470;49.868;8.660;2023-08-08T02:19:47;15.20;99.90
4910;DHT22;2470;49.868;8.660;2023-08-08T02:22:12;15.20;99.90
4910;DHT22;2470;49.868;8.660;2023-08-08T02:24:38;15.20;99.90
4910;DHT22;2470;49.868;8.660;2023-08-08T02:27:03;15.20;99.90
4910;DHT22;2470;49.868;8.660;2023-08-08T02:29:29;15.20;99.90
4910;DHT22;2470;49.868;8.660;2023-08-08T02:31:55;15.10;99.90
4910;DHT22;2470;49.868;8.660;2023-08-08T02:34:20;15.10;99.90
4910;DHT22;2470;49.868;8.660;2023-08-08T02:36:46;15.00;99.90
4910;DHT22;2470;49.868;8.660;2023-08-08T02:39:11;15.00;99.90
4910;DHT22;2470;49.868;8.660;2023-08-08T02:41:37;15.00;99.90
4910;DHT22;2470;49.868;8.660;2023-08-08T02:44:03;14.90;99.90
4910;DHT22;2470;49.868;8.660;2023-08-08T02:46:28;14.90;99.90
4910;DHT22;2470;49.868;8.660;2023-08-08T02:48:54;14.80;99.90
4910;DHT22;2470;49.868;8.660;2023-08-08T02:51:19;14.70;99.90
4910;DHT22;2470;49.868;8.660;2023-08-08T02:53:45;14.70;99.90
4910;DHT22;2470;49.868;8.660;2023-08-08T02:56:10;14.70;99.90
4910;DHT22;2470;49.868;8.660;2023-08-08T02:58:35;14.70;99.90
4910;DHT22;2470;49.868;8.660;2023-08-08T03:01:01;14.70;99.90
4910;DHT22;2470;49.868;8.660;2023-08-08T03:03:27;14.60;99.90
4910;DHT22;2470;49.868;8.660;2023-08-08T03:05:52;14.60;99.90
4910;DHT22;2470;49.868;8.660;2023-08-08T03:08:18;14.50;99.90
4910;DHT22;2470;49.868;8.660;2023-08-08T03:10:43;14.60;99.90
4910;DHT22;2470;49.868;8.660;2023-08-08T03:13:09;14.50;99.90
4910;DHT22;2470;49.868;8.660;2023-08-08T03:15:34;14.50;99.90
4910;DHT22;2470;49.868;8.660;2023-08-08T03:18:01;14.50;99.90
4910;DHT22;2470;49.868;8.660;2023-08-08T03:20:27;14.50;99.90
4910;DHT22;2470;49.868;8.660;2023-08-08T03:22:52;14.50;99.90
4910;DHT22;2470;49.868;8.660;2023-08-08T03:25:18;14.50;99.90
4910;DHT22;2470;49.868;8.660;2023-08-08T03:27:44;14.50;99.90
4910;DHT22;2470;49.868;8.660;2023-08-08T03:30:09;14.40;99.90
4910;DHT22;2470;49.868;8.660;2023-08-08T03:32:35;14.40;99.90
4910;DHT22;2470;49.868;8.660;2023-08-08T03:35:00;14.40;99.90
4910;DHT22;2470;49.868;8.660;2023-08-08T03:37:26;14.40;99.90
4910;DHT22;2470;49.868;8.660;2023-08-08T03:39:51;14.40;99.90
4910;DHT22;2470;49.868;8.660;2023-08-08T03:42:17;14.40;99.90
4910;DHT22;2470;49.868;8.660;2023-08-08T03:44:42;14.30;99.90
4910;DHT22;2470;49.868;8.660;2023-08-08T03:47:10;14.30;99.90
4910;DHT22;2470;49.868;8.660;2023-08-08T03:49:36;14.30;99.90
4910;DHT22;2470;49.868;8.660;2023-08-08T03:52:01;14.30;99.90
4910;DHT22;2470;49.868;8.660;2023-08-08T03:54:27;14.30;99.90
4910;DHT22;2470;49.868;8.660;2023-08-08T03:56:52;14.30;99.90
4910;DHT22;2470;49.868;8.660;2023-08-08T03:59:18;14.30;99.90
4910;DHT22;2470;49.868;8.660;2023-08-08T04:01:43;14.40;99.90
4910;DHT22;2470;49.868;8.660;2023-08-08T04:04:09;14.30;99.90
4910;DHT22;2470;49.868;8.660;2023-08-08T04:06:34;14.30;99.90
4910;DHT22;2470;49.868;8.660;2023-08-08T04:09:00;14.30;99.90
4910;DHT22;2470;49.868;8.660;2023-08-08T04:11:26;14.20;99.90
4910;DHT22;2470;49.868;8.660;2023-08-08T04:13:51;14.30;99.90
4910;DHT22;2470;49.868;8.660;2023-08-08T04:16:17;14.30;99.90
4910;DHT22;2470;49.868;8.660;2023-08-08T04:18:43;14.30;99.90
4910;DHT22;2470;49.868;8.660;2023-08-08T04:21:08;14.30;99.90
4910;DHT22;2470;49.868;8.660;2023-08-08T04:23:34;14.20;99.90
4910;DHT22;2470;49.868;8.660;2023-08-08T04:26:00;14.20;99.90
4910;DHT22;2470;49.868;8.660;2023-08-08T04:28:26;14.20;99.90
4910;DHT22;2470;49.868;8.660;2023-08-08T04:30:51;14.20;99.90
4910;DHT22;2470;49.868;8.660;2023-08-08T04:33:17;14.20;99.90
4910;DHT22;2470;49.868;8.660;2023-08-08T04:35:42;14.30;99.90
4910;DHT22;2470;49.868;8.660;2023-08-08T04:38:08;14.30;99.90
4910;DHT22;2470;49.868;8.660;2023-08-08T04:40:34;14.30;99.90
4910;DHT22;2470;49.868;8.660;2023-08-08T04:43:00;14.30;99.90
4910;DHT22;2470;49.868;8.660;2023-08-08T04:45:26;14.30;99.90
4910;DHT22;2470;49.868;8.660;2023-08-08T04:47:52;14.40;99.90
4910;DHT22;2470;49.868;8.660;2023-08-08T04:50:18;14.40;99.90
4910;DHT22;2470;49.868;8.660;2023-08-08T04:52:43;14.40;99.90
4910;DHT22;2470;49.868;8.660;2023-08-08T04:55:09;14.40;99.90
4910;DHT22;2470;49.868;8.660;2023-08-08T04:57:34;14.40;99.90
4910;DHT22;2470;49.868;8.660;2023-08-08T05:00:00;14.50;99.90
4910;DHT22;2470;49.868;8.660;2023-08-08T05:02:32;14.50;99.90
4910;DHT22;2470;49.868;8.660;2023-08-08T05:04:57;14.60;99.90
4910;DHT22;2470;49.868;8.660;2023-08-08T05:07:23;14.60;99.90
4910;DHT22;2470;49.868;8.660;2023-08-08T05:09:48;14.70;99.90
4910;DHT22;2470;49.868;8.660;2023-08-08T05:12:14;14.70;99.90
4910;DHT22;2470;49.868;8.660;2023-08-08T05:14:39;14.60;99.90
4910;DHT22;2470;49.868;8.660;2023-08-08T05:17:05;14.60;99.90
4910;DHT22;2470;49.868;8.660;2023-08-08T05:19:30;14.70;99.90
4910;DHT22;2470;49.868;8.660;2023-08-08T05:21:56;14.80;99.90
4910;DHT22;2470;49.868;8.660;2023-08-08T05:24:21;14.80;99.90
4910;DHT22;2470;49.868;8.660;2023-08-08T05:26:47;14.80;99.90
4910;DHT22;2470;49.868;8.660;2023-08-08T05:29:12;14.80;99.90
4910;DHT22;2470;49.868;8.660;2023-08-08T05:31:38;14.90;99.90
4910;DHT22;2470;49.868;8.660;2023-08-08T05:34:03;15.00;99.90
4910;DHT22;2470;49.868;8.660;2023-08-08T05:36:29;15.00;99.90
4910;DHT22;2470;49.868;8.660;2023-08-08T05:38:54;15.10;99.90
4910;DHT22;2470;49.868;8.660;2023-08-08T05:41:20;15.20;99.90
4910;DHT22;2470;49.868;8.660;2023-08-08T05:43:45;15.20;99.90
4910;DHT22;2470;49.868;8.660;2023-08-08T05:46:11;15.30;99.90
4910;DHT22;2470;49.868;8.660;2023-08-08T05:48:36;15.30;99.90
4910;DHT22;2470;49.868;8.660;2023-08-08T05:51:02;15.40;99.90
4910;DHT22;2470;49.868;8.660;2023-08-08T05:53:30;15.50;99.90
4910;DHT22;2470;49.868;8.660;2023-08-08T05:55:56;15.50;99.90
4910;DHT22;2470;49.868;8.660;2023-08-08T05:58:22;15.60;99.90
4910;DHT22;2470;49.868;8.660;2023-08-08T06:00:48;15.60;99.90
4910;DHT22;2470;49.868;8.660;2023-08-08T06:03:14;15.60;99.90
4910;DHT22;2470;49.868;8.660;2023-08-08T06:05:39;15.60;99.90
4910;DHT22;2470;49.868;8.660;2023-08-08T06:08:05;15.60;99.90
4910;DHT22;2470;49.868;8.660;2023-08-08T06:10:33;15.60;99.90
4910;DHT22;2470;49.868;8.660;2023-08-08T06:12:59;15.60;99.90
4910;DHT22;2470;49.868;8.660;2023-08-08T06:15:25;15.70;99.90
4910;DHT22;2470;49.868;8.660;2023-08-08T06:17:51;15.80;99.90
4910;DHT22;2470;49.868;8.660;2023-08-08T06:20:16;15.80;99.90
4910;DHT22;2470;49.868;8.660;2023-08-08T06:22:42;15.90;99.90
4910;DHT22;2470;49.868;8.660;2023-08-08T06:25:08;16.00;99.90
4910;DHT22;2470;49.868;8.660;2023-08-08T06:27:33;16.00;99.90
4910;DHT22;2470;49.868;8.660;2023-08-08T06:29:59;16.00;99.90
4910;DHT22;2470;49.868;8.660;2023-08-08T06:32:24;16.00;99.90
4910;DHT22;2470;49.868;8.660;2023-08-08T06:34:50;16.10;99.90
4910;DHT22;2470;49.868;8.660;2023-08-08T06:37:15;16.20;99.90
4910;DHT22;2470;49.868;8.660;2023-08-08T06:39:41;16.20;99.90
4910;DHT22;2470;49.868;8.660;2023-08-08T06:42:07;16.30;99.90
4910;DHT22;2470;49.868;8.660;2023-08-08T06:44:33;16.40;99.90
4910;DHT22;2470;49.868;8.660;2023-08-08T06:46:59;16.40;99.90
4910;DHT22;2470;49.868;8.660;2023-08-08T06:49:24;16.50;99.90
4910;DHT22;2470;49.868;8.660;2023-08-08T06:51:50;16.50;99.90
4910;DHT22;2470;49.868;8.660;2023-08-08T06:54:15;16.60;99.90
4910;DHT22;2470;49.868;8.660;2023-08-08T06:56:41;16.60;99.90
4910;DHT22;2470;49.868;8.660;2023-08-08T06:59:06;16.70;99.90
4910;DHT22;2470;49.868;8.660;2023-08-08T07:01:32;16.70;99.90
4910;DHT22;2470;49.868;8.660;2023-08-08T07:03:59;16.80;99.90
4910;DHT22;2470;49.868;8.660;2023-08-08T07:06:25;16.80;99.90
4910;DHT22;2470;49.868;8.660;2023-08-08T07:08:50;16.90;99.90
4910;DHT22;2470;49.868;8.660;2023-08-08T07:11:16;16.90;99.90
4910;DHT22;2470;49.868;8.660;2023-08-08T07:13:41;16.90;99.90
4910;DHT22;2470;49.868;8.660;2023-08-08T07:16:07;16.90;99.90
4910;DHT22;2470;49.868;8.660;2023-08-08T07:18:32;16.90;99.90
4910;DHT22;2470;49.868;8.660;2023-08-08T07:20:58;17.00;99.90
4910;DHT22;2470;49.868;8.660;2023-08-08T07:23:23;17.10;99.90
4910;DHT22;2470;49.868;8.660;2023-08-08T07:25:49;17.20;99.90
4910;DHT22;2470;49.868;8.660;2023-08-08T07:28:15;17.30;99.90
4910;DHT22;2470;49.868;8.660;2023-08-08T07:30:40;17.30;99.90
4910;DHT22;2470;49.868;8.660;2023-08-08T07:33:06;17.40;99.90
4910;DHT22;2470;49.868;8.660;2023-08-08T07:35:35;17.30;99.90
4910;DHT22;2470;49.868;8.660;2023-08-08T07:38:01;17.30;99.90
4910;DHT22;2470;49.868;8.660;2023-08-08T07:40:27;17.30;99.90
4910;DHT22;2470;49.868;8.660;2023-08-08T07:42:53;17.40;99.90
4910;DHT22;2470;49.868;8.660;2023-08-08T07:45:18;17.60;99.90
4910;DHT22;2470;49.868;8.660;2023-08-08T07:47:44;17.60;99.90
4910;DHT22;2470;49.868;8.660;2023-08-08T07:50:12;17.70;99.90
4910;DHT22;2470;49.868;8.660;2023-08-08T07:52:38;17.80;99.90
4910;DHT22;2470;49.868;8.660;2023-08-08T07:55:04;17.90;99.90
4910;DHT22;2470;49.868;8.660;2023-08-08T07:57:31;18.00;99.90
4910;DHT22;2470;49.868;8.660;2023-08-08T07:59:58;18.00;99.90
4910;DHT22;2470;49.868;8.660;2023-08-08T08:02:24;18.00;99.90
4910;DHT22;2470;49.868;8.660;2023-08-08T08:04:50;17.90;99.90
4910;DHT22;2470;49.868;8.660;2023-08-08T08:07:15;17.90;99.90
4910;DHT22;2470;49.868;8.660;2023-08-08T08:09:41;17.90;99.90
4910;DHT22;2470;49.868;8.660;2023-08-08T08:12:08;17.90;99.90
4910;DHT22;2470;49.868;8.660;2023-08-08T08:14:34;17.90;99.90
4910;DHT22;2470;49.868;8.660;2023-08-08T08:16:59;17.90;99.90
4910;DHT22;2470;49.868;8.660;2023-08-08T08:19:25;18.10;99.90
4910;DHT22;2470;49.868;8.660;2023-08-08T08:21:50;18.20;99.90
4910;DHT22;2470;49.868;8.660;2023-08-08T08:24:16;18.40;99.90
4910;DHT22;2470;49.868;8.660;2023-08-08T08:26:41;18.50;99.90
4910;DHT22;2470;49.868;8.660;2023-08-08T08:29:06;18.50;99.90
4910;DHT22;2470;49.868;8.660;2023-08-08T08:31:32;18.50;99.90
4910;DHT22;2470;49.868;8.660;2023-08-08T08:33:58;18.60;99.90
4910;DHT22;2470;49.868;8.660;2023-08-08T08:36:23;18.60;99.90
4910;DHT22;2470;49.868;8.660;2023-08-08T08:38:51;18.60;99.90
4910;DHT22;2470;49.868;8.660;2023-08-08T08:41:18;18.70;99.90
4910;DHT22;2470;49.868;8.660;2023-08-08T08:43:44;18.70;99.90
4910;DHT22;2470;49.868;8.660;2023-08-08T08:46:11;18.80;99.90
4910;DHT22;2470;49.868;8.660;2023-08-08T08:48:40;18.80;99.90
4910;DHT22;2470;49.868;8.660;2023-08-08T08:51:05;18.90;99.90
4910;DHT22;2470;49.868;8.660;2023-08-08T08:53:31;18.90;99.90
4910;DHT22;2470;49.868;8.660;2023-08-08T08:56:00;19.00;98.40
4910;DHT22;2470;49.868;8.660;2023-08-08T08:58:27;19.00;97.70
4910;DHT22;2470;49.868;8.660;2023-08-08T09:00:53;19.00;97.30
4910;DHT22;2470;49.868;8.660;2023-08-08T09:03:19;19.00;97.10
4910;DHT22;2470;49.868;8.660;2023-08-08T09:05:45;19.00;97.00
4910;DHT22;2470;49.868;8.660;2023-08-08T09:08:11;19.00;97.30
4910;DHT22;2470;49.868;8.660;2023-08-08T09:10:38;19.10;97.30
4910;DHT22;2470;49.868;8.660;2023-08-08T09:13:03;19.30;96.80
4910;DHT22;2470;49.868;8.660;2023-08-08T09:15:33;19.30;96.80
4910;DHT22;2470;49.868;8.660;2023-08-08T09:18:00;19.40;97.10
4910;DHT22;2470;49.868;8.660;2023-08-08T09:20:26;19.50;97.80
4910;DHT22;2470;49.868;8.660;2023-08-08T09:22:55;19.50;98.60
4910;DHT22;2470;49.868;8.660;2023-08-08T09:25:21;19.60;97.80
4910;DHT22;2470;49.868;8.660;2023-08-08T09:27:46;19.60;97.90
4910;DHT22;2470;49.868;8.660;2023-08-08T09:30:12;19.60;97.10
4910;DHT22;2470;49.868;8.660;2023-08-08T09:32:38;19.60;96.10
4910;DHT22;2470;49.868;8.660;2023-08-08T09:35:04;19.60;95.20
4910;DHT22;2470;49.868;8.660;2023-08-08T09:37:32;19.50;95.30
4910;DHT22;2470;49.868;8.660;2023-08-08T09:39:59;19.60;95.70
4910;DHT22;2470;49.868;8.660;2023-08-08T09:42:28;19.70;95.30
4910;DHT22;2470;49.868;8.660;2023-08-08T09:44:56;19.70;94.70
4910;DHT22;2470;49.868;8.660;2023-08-08T09:47:22;19.70;95.20
4910;DHT22;2470;49.868;8.660;2023-08-08T09:49:48;19.80;94.90
4910;DHT22;2470;49.868;8.660;2023-08-08T09:52:15;20.00;95.80
4910;DHT22;2470;49.868;8.660;2023-08-08T09:54:41;20.20;94.70
4910;DHT22;2470;49.868;8.660;2023-08-08T09:57:07;20.20;94.70
4910;DHT22;2470;49.868;8.660;2023-08-08T09:59:33;20.20;94.90
4910;DHT22;2470;49.868;8.660;2023-08-08T10:02:00;20.20;94.70
4910;DHT22;2470;49.868;8.660;2023-08-08T10:04:26;20.20;94.30
4910;DHT22;2470;49.868;8.660;2023-08-08T10:06:52;20.20;94.90
4910;DHT22;2470;49.868;8.660;2023-08-08T10:09:17;20.20;94.40
4910;DHT22;2470;49.868;8.660;2023-08-08T10:11:44;20.30;95.20
4910;DHT22;2470;49.868;8.660;2023-08-08T10:14:10;20.40;94.30
4910;DHT22;2470;49.868;8.660;2023-08-08T10:16:37;20.40;94.00
4910;DHT22;2470;49.868;8.660;2023-08-08T10:19:04;20.50;93.80
4910;DHT22;2470;49.868;8.660;2023-08-08T10:21:35;20.50;93.50
4910;DHT22;2470;49.868;8.660;2023-08-08T10:24:04;20.50;93.50
4910;DHT22;2470;49.868;8.660;2023-08-08T10:26:31;20.50;94.30
4910;DHT22;2470;49.868;8.660;2023-08-08T10:28:58;20.60;93.80
4910;DHT22;2470;49.868;8.660;2023-08-08T10:31:23;20.80;94.50
4910;DHT22;2470;49.868;8.660;2023-08-08T10:33:49;20.80;92.90
4910;DHT22;2470;49.868;8.660;2023-08-08T10:36:16;20.80;93.30
4910;DHT22;2470;49.868;8.660;2023-08-08T10:38:47;21.00;93.20
4910;DHT22;2470;49.868;8.660;2023-08-08T10:41:18;21.10;93.10
4910;DHT22;2470;49.868;8.660;2023-08-08T10:43:55;21.10;93.50
4910;DHT22;2470;49.868;8.660;2023-08-08T10:46:31;21.10;93.30
4910;DHT22;2470;49.868;8.660;2023-08-08T10:49:01;21.10;92.90
4910;DHT22;2470;49.868;8.660;2023-08-08T10:51:41;21.10;93.30
4910;DHT22;2470;49.868;8.660;2023-08-08T10:56:39;21.50;92.60
4910;DHT22;2470;49.868;8.660;2023-08-08T10:59:15;21.50;92.00
4910;DHT22;2470;49.868;8.660;2023-08-08T11:01:42;21.60;92.70
4910;DHT22;2470;49.868;8.660;2023-08-08T11:04:10;21.70;92.80
4910;DHT22;2470;49.868;8.660;2023-08-08T11:06:37;22.00;92.50
4910;DHT22;2470;49.868;8.660;2023-08-08T11:09:05;22.10;91.70
4910;DHT22;2470;49.868;8.660;2023-08-08T11:11:39;22.20;91.40
4910;DHT22;2470;49.868;8.660;2023-08-08T11:14:23;22.10;90.70
4910;DHT22;2470;49.868;8.660;2023-08-08T11:16:51;21.90;90.80
4910;DHT22;2470;49.868;8.660;2023-08-08T11:19:16;21.80;90.80
4910;DHT22;2470;49.868;8.660;2023-08-08T11:21:45;21.70;90.80
4910;DHT22;2470;49.868;8.660;2023-08-08T11:24:12;21.90;91.40
4910;DHT22;2470;49.868;8.660;2023-08-08T11:26:40;21.90;90.20
4910;DHT22;2470;49.868;8.660;2023-08-08T11:29:06;21.90;90.90
4910;DHT22;2470;49.868;8.660;2023-08-08T11:31:33;21.90;91.10
4910;DHT22;2470;49.868;8.660;2023-08-08T11:33:59;22.00;90.80
4910;DHT22;2470;49.868;8.660;2023-08-08T11:36:26;22.00;90.50
4910;DHT22;2470;49.868;8.660;2023-08-08T11:38:54;21.80;90.60
4910;DHT22;2470;49.868;8.660;2023-08-08T11:41:22;21.70;90.30
4910;DHT22;2470;49.868;8.660;2023-08-08T11:43:50;21.60;90.50
4910;DHT22;2470;49.868;8.660;2023-08-08T11:46:16;21.80;90.70
4910;DHT22;2470;49.868;8.660;2023-08-08T11:48:43;22.00;90.30
4910;DHT22;2470;49.868;8.660;2023-08-08T11:51:13;22.30;89.80
4910;DHT22;2470;49.868;8.660;2023-08-08T11:53:51;22.30;89.20
4910;DHT22;2470;49.868;8.660;2023-08-08T11:56:19;22.50;89.30
4910;DHT22;2470;49.868;8.660;2023-08-08T11:58:44;22.50;86.80
4910;DHT22;2470;49.868;8.660;2023-08-08T12:01:10;22.70;87.80
4910;DHT22;2470;49.868;8.660;2023-08-08T12:03:39;22.80;87.10
4910;DHT22;2470;49.868;8.660;2023-08-08T12:06:15;22.90;85.20
4910;DHT22;2470;49.868;8.660;2023-08-08T12:08:44;23.00;86.10
4910;DHT22;2470;49.868;8.660;2023-08-08T12:11:11;23.10;84.30
4910;DHT22;2470;49.868;8.660;2023-08-08T12:13:38;23.10;83.40
4910;DHT22;2470;49.868;8.660;2023-08-08T12:16:09;22.90;82.90
4910;DHT22;2470;49.868;8.660;2023-08-08T12:18:38;22.80;83.30
4910;DHT22;2470;49.868;8.660;2023-08-08T12:21:05;22.90;85.40
4910;DHT22;2470;49.868;8.660;2023-08-08T12:23:31;23.30;83.50
4910;DHT22;2470;49.868;8.660;2023-08-08T12:25:58;23.30;82.70
4910;DHT22;2470;49.868;8.660;2023-08-08T12:28:24;23.40;83.10
4910;DHT22;2470;49.868;8.660;2023-08-08T12:30:50;23.60;82.60
4910;DHT22;2470;49.868;8.660;2023-08-08T12:33:15;23.70;81.30
4910;DHT22;2470;49.868;8.660;2023-08-08T12:35:41;23.70;80.70
4910;DHT22;2470;49.868;8.660;2023-08-08T12:38:07;23.80;79.90
4910;DHT22;2470;49.868;8.660;2023-08-08T12:40:32;24.00;78.70
4910;DHT22;2470;49.868;8.660;2023-08-08T12:42:59;24.00;78.30
4910;DHT22;2470;49.868;8.660;2023-08-08T12:45:24;23.90;77.40
4910;DHT22;2470;49.868;8.660;2023-08-08T12:47:50;24.10;77.30
4910;DHT22;2470;49.868;8.660;2023-08-08T12:50:16;24.20;76.50
4910;DHT22;2470;49.868;8.660;2023-08-08T12:52:41;24.80;74.90
4910;DHT22;2470;49.868;8.660;2023-08-08T12:55:07;25.30;74.20
4910;DHT22;2470;49.868;8.660;2023-08-08T12:57:34;25.40;73.50
4910;DHT22;2470;49.868;8.660;2023-08-08T12:59:59;25.10;72.30
4910;DHT22;2470;49.868;8.660;2023-08-08T13:02:25;25.20;72.90
4910;DHT22;2470;49.868;8.660;2023-08-08T13:04:50;25.30;71.70
4910;DHT22;2470;49.868;8.660;2023-08-08T13:07:16;25.20;70.20
4910;DHT22;2470;49.868;8.660;2023-08-08T13:09:42;25.00;69.20
4910;DHT22;2470;49.868;8.660;2023-08-08T13:12:07;24.60;70.80
4910;DHT22;2470;49.868;8.660;2023-08-08T13:14:33;24.10;70.60
4910;DHT22;2470;49.868;8.660;2023-08-08T13:16:58;23.80;70.80
4910;DHT22;2470;49.868;8.660;2023-08-08T13:19:24;23.30;72.20
4910;DHT22;2470;49.868;8.660;2023-08-08T13:21:53;23.00;73.40
4910;DHT22;2470;49.868;8.660;2023-08-08T13:24:20;22.70;73.00
4910;DHT22;2470;49.868;8.660;2023-08-08T13:26:48;22.70;73.70
4910;DHT22;2470;49.868;8.660;2023-08-08T13:29:14;23.40;74.80
4910;DHT22;2470;49.868;8.660;2023-08-08T13:31:39;24.90;71.70
4910;DHT22;2470;49.868;8.660;2023-08-08T13:34:05;24.90;69.20
4910;DHT22;2470;49.868;8.660;2023-08-08T13:36:30;24.30;70.10
4910;DHT22;2470;49.868;8.660;2023-08-08T13:38:56;23.60;69.90
4910;DHT22;2470;49.868;8.660;2023-08-08T13:41:22;23.10;70.90
4910;DHT22;2470;49.868;8.660;2023-08-08T13:43:47;23.00;71.60
4910;DHT22;2470;49.868;8.660;2023-08-08T13:46:13;22.90;72.30
4910;DHT22;2470;49.868;8.660;2023-08-08T13:48:38;22.60;72.40
4910;DHT22;2470;49.868;8.660;2023-08-08T13:51:04;22.40;73.30
4910;DHT22;2470;49.868;8.660;2023-08-08T13:53:29;22.30;74.60
4910;DHT22;2470;49.868;8.660;2023-08-08T13:55:55;23.70;74.60
4910;DHT22;2470;49.868;8.660;2023-08-08T13:58:21;25.50;70.90
4910;DHT22;2470;49.868;8.660;2023-08-08T14:00:48;27.80;65.60
4910;DHT22;2470;49.868;8.660;2023-08-08T14:03:14;29.40;62.80
4910;DHT22;2470;49.868;8.660;2023-08-08T14:05:39;29.10;59.40
4910;DHT22;2470;49.868;8.660;2023-08-08T14:08:05;27.60;59.70
4910;DHT22;2470;49.868;8.660;2023-08-08T14:10:31;26.20;61.00
4910;DHT22;2470;49.868;8.660;2023-08-08T14:12:56;25.30;63.20
4910;DHT22;2470;49.868;8.660;2023-08-08T14:15:22;24.80;65.20
4910;DHT22;2470;49.868;8.660;2023-08-08T14:17:47;24.30;66.20
4910;DHT22;2470;49.868;8.660;2023-08-08T14:20:13;23.90;66.30
4910;DHT22;2470;49.868;8.660;2023-08-08T14:22:39;23.50;67.00
4910;DHT22;2470;49.868;8.660;2023-08-08T14:25:05;23.10;68.70
4910;DHT22;2470;49.868;8.660;2023-08-08T14:27:31;23.00;70.10
4910;DHT22;2470;49.868;8.660;2023-08-08T14:29:57;23.20;70.70
4910;DHT22;2470;49.868;8.660;2023-08-08T14:32:23;23.10;68.70
4910;DHT22;2470;49.868;8.660;2023-08-08T14:34:48;22.90;70.50
4910;DHT22;2470;49.868;8.660;2023-08-08T14:37:14;22.80;70.60
4910;DHT22;2470;49.868;8.660;2023-08-08T14:39:39;22.50;71.00
4910;DHT22;2470;49.868;8.660;2023-08-08T14:42:05;22.50;72.30
4910;DHT22;2470;49.868;8.660;2023-08-08T14:44:30;22.40;72.40
4910;DHT22;2470;49.868;8.660;2023-08-08T14:46:56;22.20;72.70
4910;DHT22;2470;49.868;8.660;2023-08-08T14:49:21;22.10;73.60
4910;DHT22;2470;49.868;8.660;2023-08-08T14:51:48;21.90;74.00
4910;DHT22;2470;49.868;8.660;2023-08-08T14:54:13;21.80;74.50
4910;DHT22;2470;49.868;8.660;2023-08-08T14:56:39;21.50;75.50
4910;DHT22;2470;49.868;8.660;2023-08-08T14:59:04;21.40;76.10
4910;DHT22;2470;49.868;8.660;2023-08-08T15:01:30;21.20;76.90
4910;DHT22;2470;49.868;8.660;2023-08-08T15:03:57;21.20;78.20
4910;DHT22;2470;49.868;8.660;2023-08-08T15:06:23;21.10;78.50
4910;DHT22;2470;49.868;8.660;2023-08-08T15:08:48;21.10;78.70
4910;DHT22;2470;49.868;8.660;2023-08-08T15:11:15;20.90;79.70
4910;DHT22;2470;49.868;8.660;2023-08-08T15:13:42;20.80;80.60
4910;DHT22;2470;49.868;8.660;2023-08-08T15:16:07;20.80;81.00
4910;DHT22;2470;49.868;8.660;2023-08-08T15:18:33;20.70;81.80
4910;DHT22;2470;49.868;8.660;2023-08-08T15:20:59;20.70;82.60
4910;DHT22;2470;49.868;8.660;2023-08-08T15:23:24;20.70;83.30
4910;DHT22;2470;49.868;8.660;2023-08-08T15:25:50;20.70;83.60
4910;DHT22;2470;49.868;8.660;2023-08-08T15:28:15;20.70;83.70
4910;DHT22;2470;49.868;8.660;2023-08-08T15:30:41;20.70;83.40
4910;DHT22;2470;49.868;8.660;2023-08-08T15:33:07;20.60;83.50
4910;DHT22;2470;49.868;8.660;2023-08-08T15:35:32;20.60;84.90
4910;DHT22;2470;49.868;8.660;2023-08-08T15:37:58;20.60;85.50
4910;DHT22;2470;49.868;8.660;2023-08-08T15:40:25;20.50;85.10
4910;DHT22;2470;49.868;8.660;2023-08-08T15:42:51;20.50;85.30
4910;DHT22;2470;49.868;8.660;2023-08-08T15:45:17;20.40;86.30
4910;DHT22;2470;49.868;8.660;2023-08-08T15:47:42;20.30;86.50
4910;DHT22;2470;49.868;8.660;2023-08-08T15:50:09;20.40;87.60
4910;DHT22;2470;49.868;8.660;2023-08-08T15:52:35;20.40;88.00
4910;DHT22;2470;49.868;8.660;2023-08-08T15:55:02;20.40;88.70
4910;DHT22;2470;49.868;8.660;2023-08-08T15:57:29;20.40;88.80
4910;DHT22;2470;49.868;8.660;2023-08-08T15:59:55;20.40;88.30
4910;DHT22;2470;49.868;8.660;2023-08-08T16:02:20;20.40;89.20